KLAA/LAA METAR and TAF weather

Enter ICAO airport designator
Station Type Date Time Source
KLAA METAR 2020/01/29 02:53 UTC NOAA

KLAA 290253Z AUTO 21004KT 10SM CLR M03/M06 A3004 RMK AO2 SLP192 T10281056 53003


Station Type Date Time Source
KLAA Decoded METAR 2020/01/29 02:53 UTC NOAA

LAMAR MUNICIPAL AIRPORT, CO, United States (KLAA) 38-04N 102-41W 1119M
Jan 28, 2020 - 09:53 PM EST / 2020.01.29 0253 UTC
Wind: from the SSW (210 degrees) at 5 MPH (4 KT):0
Visibility: 10 mile(s):0
Sky conditions: clear
Temperature: 27.0 F (-2.8 C)
Windchill: 21 F (-6 C):1
Dew Point: 21.9 F (-5.6 C)
Relative Humidity: 81%
Pressure (altimeter): 30.04 in. Hg (1017 hPa)
Pressure tendency: 0.01 inches (0.3 hPa) higher than three hours ago
ob: KLAA 290253Z AUTO 21004KT 10SM CLR M03/M06 A3004 RMK AO2 SLP192 T10281056 53003
cycle: 3

Station Type Date Time Source
KLAA TAF UTC NOAA

Error!

Example: see airport list